Airport View

Enter ICAO identifier to see the current METAR for that AWOS.

KFNL for example

KCQM 301554Z AUTO 05005KT 10SM OVC013 16/13 A2991 RMK AO2

30 Aug 2014 16:26

Frequency: 118.175

Phone: 218-666-2539

Other Area AWOS: KORB - KEVM - KHIB - KCDD

TAF AMD KHIB 301503Z 3015/3112 01007KT P6SM OVC006 FM301700 03005KT P6SM OVC015 FM302300 VRB02KT P6SM SCT025 BKN035 FM310800 VRB02KT 6SM BR OVC025